createdAt,value
2018-06-12T00:01:20.118Z,1006.6
2018-06-12T00:06:19.993Z,1006.5
2018-06-12T00:11:19.834Z,1006.5
2018-06-12T00:16:20.052Z,1006.4
2018-06-12T00:21:19.872Z,1006.4
2018-06-12T00:26:20.028Z,1006.5
2018-06-12T00:31:19.881Z,1006.5
2018-06-12T00:36:19.905Z,1006.5
2018-06-12T00:41:19.914Z,1006.5
2018-06-12T00:46:31.912Z,1006.6
2018-06-12T00:51:31.654Z,1006.6
2018-06-12T00:56:31.648Z,1006.6
2018-06-12T01:01:31.646Z,1006.6
2018-06-12T01:06:31.637Z,1006.6
2018-06-12T01:11:32.737Z,1006.5
2018-06-12T01:16:32.461Z,1006.6
2018-06-12T01:21:32.468Z,1006.6
2018-06-12T01:26:32.570Z,1006.6
2018-06-12T01:31:32.466Z,1006.6
2018-06-12T01:36:32.619Z,1006.6
2018-06-12T01:41:32.609Z,1006.5
2018-06-12T01:46:32.491Z,1006.6
2018-06-12T01:51:32.480Z,1006.7
2018-06-12T01:56:44.677Z,1006.6
2018-06-12T02:01:44.622Z,1006.7
2018-06-12T02:06:44.438Z,1006.8
2018-06-12T02:11:44.644Z,1006.7
2018-06-12T02:16:44.623Z,1006.8
2018-06-12T02:21:44.413Z,1006.9
2018-06-12T02:26:44.592Z,1006.9
2018-06-12T02:31:44.439Z,1006.9
2018-06-12T02:36:45.510Z,1007
2018-06-12T02:41:57.870Z,1007
2018-06-12T02:46:57.601Z,1007
2018-06-12T02:51:57.589Z,1007
2018-06-12T02:56:57.608Z,1007.1
2018-06-12T03:01:57.722Z,1007.3
2018-06-12T03:06:57.896Z,1007.3
2018-06-12T03:11:57.608Z,1007.3
2018-06-12T03:16:59.076Z,1007.4
2018-06-12T03:21:59.072Z,1007.4
2018-06-12T03:27:09.501Z,1007.5
2018-06-12T03:32:09.223Z,1007.5
2018-06-12T03:37:09.240Z,1007.5
2018-06-12T03:42:09.429Z,1007.6
2018-06-12T03:47:09.405Z,1007.5
2018-06-12T03:52:09.252Z,1007.5
2018-06-12T03:57:09.363Z,1007.6
2018-06-12T04:02:09.781Z,1007.7
2018-06-12T04:07:09.489Z,1007.8
2018-06-12T04:12:22.163Z,1007.9
2018-06-12T04:17:21.891Z,1007.9
2018-06-12T04:22:21.871Z,1007.9
2018-06-12T04:27:21.883Z,1007.9
2018-06-12T04:32:21.997Z,1007.9
2018-06-12T04:37:21.882Z,1008
2018-06-12T04:42:22.067Z,1008
2018-06-12T04:47:21.888Z,1008.1
2018-06-12T04:52:21.921Z,1008
2018-06-12T04:57:33.879Z,1008.1
2018-06-12T05:02:33.791Z,1008.1
2018-06-12T05:07:33.821Z,1008.1
2018-06-12T05:12:33.773Z,1008.2
2018-06-12T05:17:33.788Z,1008.2
2018-06-12T05:22:33.568Z,1008.1
2018-06-12T05:27:33.727Z,1008.3
2018-06-12T05:32:33.787Z,1008.2
2018-06-12T05:37:33.595Z,1008.1
2018-06-12T05:42:33.730Z,1008.1
2018-06-12T05:47:33.837Z,1008.1
2018-06-12T05:52:33.599Z,1008
2018-06-12T05:57:36.068Z,1007.9
2018-06-12T06:02:35.772Z,1008
2018-06-12T06:07:46.277Z,1007.9
2018-06-12T06:12:46.126Z,1008
2018-06-12T06:17:46.202Z,1008
2018-06-12T06:22:46.350Z,1008.2
2018-06-12T06:27:46.011Z,1008.2
2018-06-12T06:32:45.949Z,1008.2
2018-06-12T06:37:46.013Z,1008.3
2018-06-12T06:42:45.958Z,1008.3
2018-06-12T06:47:46.037Z,1008.4
2018-06-12T06:52:57.592Z,1008.3
2018-06-12T06:57:57.501Z,1008.3
2018-06-12T07:02:57.528Z,1008.3
2018-06-12T07:07:57.313Z,1008.2
2018-06-12T07:12:57.452Z,1008.3
2018-06-12T07:17:57.523Z,1008.4
2018-06-12T07:22:57.346Z,1008.4
2018-06-12T07:27:58.653Z,1008.4
2018-06-12T07:32:58.558Z,1008.3
2018-06-12T07:38:11.835Z,1008.1
2018-06-12T07:43:11.568Z,1008.2
2018-06-12T07:48:11.771Z,1008.1
2018-06-12T07:53:11.665Z,1008.1
2018-06-12T07:58:11.729Z,1008.2
2018-06-12T08:03:11.553Z,1008.2
2018-06-12T08:08:11.560Z,1008.1
2018-06-12T08:13:12.278Z,1008
2018-06-12T08:18:12.144Z,1008.1
2018-06-12T08:23:24.534Z,1008
2018-06-12T08:28:24.453Z,1008
2018-06-12T08:33:24.228Z,1007.9
2018-06-12T08:38:24.199Z,1007.7
2018-06-12T08:43:24.435Z,1007.9
2018-06-12T08:48:27.468Z,1007.9
2018-06-12T08:53:27.685Z,1007.8
2018-06-12T08:58:29.912Z,1007.8
2018-06-12T09:03:29.774Z,1007.8
2018-06-12T09:08:41.907Z,1007.7
2018-06-12T09:13:41.821Z,1007.8
2018-06-12T09:18:41.731Z,1007.9
2018-06-12T09:23:41.809Z,1007.8
2018-06-12T09:28:41.878Z,1007.8
2018-06-12T09:33:41.629Z,1007.9
2018-06-12T09:38:41.807Z,1007.8
2018-06-12T09:43:45.197Z,1007.6
2018-06-12T09:48:45.114Z,1007.4
2018-06-12T09:53:57.978Z,1007.5
2018-06-12T09:58:57.921Z,1007.3
2018-06-12T10:03:57.853Z,1007.3
2018-06-12T10:08:59.226Z,1007.3
2018-06-12T10:13:57.933Z,1007.2
2018-06-12T10:18:57.862Z,1007.4
2018-06-12T10:23:57.930Z,1007.3
2018-06-12T10:29:00.101Z,1007.3
2018-06-12T10:34:00.031Z,1007.3
2018-06-12T10:39:12.695Z,1007.3
2018-06-12T10:44:12.339Z,1007.3
2018-06-12T10:49:12.606Z,1007.2
2018-06-12T10:54:12.557Z,1007.1
2018-06-12T10:59:13.589Z,1006.9
2018-06-12T11:04:12.619Z,1006.8
2018-06-12T11:09:12.404Z,1006.6
2018-06-12T11:14:13.797Z,1006.5
2018-06-12T11:19:13.717Z,1006.5
2018-06-12T11:24:29.339Z,1006.3
2018-06-12T11:29:29.236Z,1006.1
2018-06-12T11:34:29.075Z,1005.9
2018-06-12T11:39:29.219Z,1005.9
2018-06-12T11:44:29.290Z,1005.7
2018-06-12T11:49:29.178Z,1005.5
2018-06-12T11:54:29.093Z,1005.7
2018-06-12T11:59:29.490Z,1005.5
2018-06-12T12:04:29.425Z,1005.6
2018-06-12T12:09:42.022Z,1005.4
2018-06-12T12:14:41.616Z,1005.1
2018-06-12T12:19:45.933Z,1005
2018-06-12T12:24:50.250Z,1005
2018-06-12T12:29:51.462Z,1004.7
2018-06-12T12:34:49.985Z,1004.8
2018-06-12T12:39:50.006Z,1004.6
2018-06-12T12:44:53.072Z,1004.6
2018-06-12T12:49:52.966Z,1004.7
2018-06-12T12:55:05.473Z,1004.4
2018-06-12T13:00:05.432Z,1004.3
2018-06-12T13:05:05.154Z,1004.4
2018-06-12T13:10:05.954Z,1004.4
2018-06-12T13:15:05.446Z,1004.4
2018-06-12T13:20:07.011Z,1004.6
2018-06-12T13:25:06.728Z,1004.5
2018-06-12T13:30:06.535Z,1004.5
2018-06-12T13:35:06.522Z,1004.7
2018-06-12T13:40:06.703Z,1004.6
2018-06-12T13:45:06.558Z,1004.7
2018-06-12T13:50:06.548Z,1004.6
2018-06-12T13:55:09.517Z,1004.7
2018-06-12T14:00:09.393Z,1004.7
2018-06-12T14:05:22.296Z,1004.6
2018-06-12T14:10:21.989Z,1004.5
2018-06-12T14:15:22.231Z,1004.8
2018-06-12T14:20:22.039Z,1005
2018-06-12T14:25:22.198Z,1005
2018-06-12T14:30:22.120Z,1005.2
2018-06-12T14:35:22.141Z,1005.5
2018-06-12T14:40:22.905Z,1005.4
2018-06-12T14:45:22.832Z,1005.1
2018-06-12T14:50:35.377Z,1004.9
2018-06-12T14:55:35.075Z,1005.1
2018-06-12T15:00:35.103Z,1005.3
2018-06-12T15:05:35.318Z,1005.7
2018-06-12T15:10:35.637Z,1006
2018-06-12T15:15:35.295Z,1006.3
2018-06-12T15:20:35.338Z,1006.5
2018-06-12T15:25:36.373Z,1006.5
2018-06-12T15:30:36.312Z,1006.7
2018-06-12T15:35:47.712Z,1006.4
2018-06-12T15:40:47.650Z,1005.9
2018-06-12T15:45:47.425Z,1005.5
2018-06-12T15:50:49.209Z,1005.3
2018-06-12T15:55:47.442Z,1005.3
2018-06-12T16:00:47.698Z,1005.2
2018-06-12T16:05:47.435Z,1005.3
2018-06-12T16:10:49.892Z,1005.4
2018-06-12T16:15:49.538Z,1005.6
2018-06-12T16:21:03.162Z,1005.7
2018-06-12T16:26:02.552Z,1005.7
2018-06-12T16:31:02.561Z,1005.7
2018-06-12T16:36:02.691Z,1005.8
2018-06-12T16:41:02.438Z,1005.9
2018-06-12T16:46:02.454Z,1005.9
2018-06-12T16:51:02.880Z,1005.8
2018-06-12T16:56:02.612Z,1005.8
2018-06-12T17:01:02.664Z,1005.9
2018-06-12T17:06:15.648Z,1005.8
2018-06-12T17:11:15.544Z,1005.6
2018-06-12T17:16:15.356Z,1005.7
2018-06-12T17:21:15.361Z,1005.6
2018-06-12T17:26:15.353Z,1005.7
2018-06-12T17:31:15.388Z,1005.8
2018-06-12T17:36:15.620Z,1005.7
2018-06-12T17:41:15.422Z,1005.6
2018-06-12T17:46:15.442Z,1005.6
2018-06-12T17:51:15.541Z,1005.7
2018-06-12T17:56:16.499Z,1005.8
2018-06-12T18:01:15.383Z,1005.8
2018-06-12T18:06:15.448Z,1005.7
2018-06-12T18:11:16.374Z,1005.7
2018-06-12T18:16:27.028Z,1005.6
2018-06-12T18:21:28.280Z,1005.6
2018-06-12T18:26:26.830Z,1005.6
2018-06-12T18:31:26.750Z,1005.7
2018-06-12T18:36:27.058Z,1005.6
2018-06-12T18:41:27.031Z,1005.7
2018-06-12T18:46:27.061Z,1005.6
2018-06-12T18:51:30.371Z,1005.7
2018-06-12T18:56:30.111Z,1005.9
2018-06-12T19:01:42.240Z,1005.9
2018-06-12T19:06:42.433Z,1006
2018-06-12T19:11:42.021Z,1006.1
2018-06-12T19:16:41.995Z,1006.1
2018-06-12T19:21:42.265Z,1006.2
2018-06-12T19:26:42.211Z,1006.3
2018-06-12T19:31:42.301Z,1006.4
2018-06-12T19:36:42.633Z,1006.3
2018-06-12T19:41:42.301Z,1006.4
2018-06-12T19:46:55.143Z,1006.5
2018-06-12T19:51:54.710Z,1006.6
2018-06-12T19:56:54.922Z,1006.6
2018-06-12T20:01:54.707Z,1006.6
2018-06-12T20:06:54.711Z,1006.4
2018-06-12T20:11:54.774Z,1006.4
2018-06-12T20:16:54.787Z,1006.4
2018-06-12T20:21:55.513Z,1006.5
2018-06-12T20:26:57.118Z,1006.3
2018-06-12T20:32:13.655Z,1006.2
2018-06-12T20:37:11.684Z,1006.1
2018-06-12T20:42:11.491Z,1006
2018-06-12T20:47:11.573Z,1005.9
2018-06-12T20:52:11.349Z,1006
2018-06-12T20:57:14.140Z,1006.1
2018-06-12T21:02:14.056Z,1006
2018-06-12T21:07:21.650Z,1006.1
2018-06-12T21:12:19.911Z,1006.1
2018-06-12T21:17:31.245Z,1006
2018-06-12T21:22:30.912Z,1006.1
2018-06-12T21:27:30.934Z,1006.1
2018-06-12T21:32:30.934Z,1006.1
2018-06-12T21:37:30.912Z,1006
2018-06-12T21:42:30.954Z,1006
2018-06-12T21:47:31.052Z,1006
2018-06-12T21:52:31.647Z,1006
2018-06-12T21:57:31.468Z,1006
2018-06-12T22:02:43.373Z,1006
2018-06-12T22:07:43.493Z,1005.9
2018-06-12T22:12:43.070Z,1005.8
2018-06-12T22:17:43.324Z,1006
2018-06-12T22:22:43.344Z,1006.1
2018-06-12T22:27:43.347Z,1006.1
2018-06-12T22:32:43.522Z,1006.2
2018-06-12T22:37:45.591Z,1006
2018-06-12T22:42:44.978Z,1006.2
2018-06-12T22:47:59.163Z,1006.2
2018-06-12T22:52:59.029Z,1006.2
2018-06-12T22:57:58.878Z,1006.1
2018-06-12T23:02:59.094Z,1006.1
2018-06-12T23:07:59.002Z,1006.1
2018-06-12T23:12:59.055Z,1006
2018-06-12T23:17:58.889Z,1005.9
2018-06-12T23:22:59.097Z,1005.8
2018-06-12T23:27:59.092Z,1005.9
2018-06-12T23:33:11.580Z,1005.9
2018-06-12T23:38:11.432Z,1005.8
2018-06-12T23:43:11.304Z,1005.8
2018-06-12T23:48:11.659Z,1005.7
2018-06-12T23:53:11.404Z,1005.7
2018-06-12T23:58:11.309Z,1005.7
